createdAt,value
2022-10-19T00:00:42.650Z,67.03
2022-10-19T00:01:45.548Z,66.84
2022-10-19T00:02:48.349Z,66.86
2022-10-19T00:03:53.986Z,66.81
2022-10-19T00:04:56.855Z,66.69
2022-10-19T00:05:59.974Z,66.62
2022-10-19T00:07:02.757Z,66.86
2022-10-19T00:08:06.409Z,66.76
2022-10-19T00:09:12.170Z,66.91
2022-10-19T00:10:14.889Z,67.05
2022-10-19T00:11:17.531Z,66.81
2022-10-19T00:12:20.133Z,66.66
2022-10-19T00:13:22.806Z,66.77
2022-10-19T00:14:26.375Z,66.98
2022-10-19T00:15:29.129Z,67.04
2022-10-19T00:16:34.983Z,66.47
2022-10-19T00:17:37.737Z,66.21
2022-10-19T00:18:43.569Z,66.29
2022-10-19T00:19:55.274Z,66.69
2022-10-19T00:21:09.140Z,66.87
2022-10-19T00:22:13.917Z,66.53
2022-10-19T00:23:17.095Z,66.40
2022-10-19T00:24:20.331Z,66.43
2022-10-19T00:25:23.133Z,66.26
2022-10-19T00:26:26.246Z,66.78
2022-10-19T00:27:28.975Z,67.12
2022-10-19T00:28:34.987Z,67.87
2022-10-19T00:29:39.026Z,67.86
2022-10-19T00:30:41.899Z,68.09
2022-10-19T00:31:44.781Z,68.06
2022-10-19T00:32:47.574Z,68.37
2022-10-19T00:33:50.673Z,68.83
2022-10-19T00:34:53.493Z,69.07
2022-10-19T00:35:56.332Z,68.93
2022-10-19T00:36:59.180Z,68.97
2022-10-19T00:38:02.052Z,69.06
2022-10-19T00:39:07.776Z,69.27
2022-10-19T00:40:10.892Z,68.64
2022-10-19T00:41:18.024Z,69.29
2022-10-19T00:42:20.932Z,68.71
2022-10-19T00:43:26.773Z,68.26
2022-10-19T00:44:29.660Z,68.32
2022-10-19T00:45:32.533Z,68.71
2022-10-19T00:46:38.410Z,68.40
2022-10-19T00:47:42.491Z,68.45
2022-10-19T00:48:45.862Z,68.04
2022-10-19T00:49:48.813Z,67.79
2022-10-19T00:50:54.498Z,67.66
2022-10-19T00:52:06.048Z,67.65
2022-10-19T00:53:09.020Z,67.94
2022-10-19T00:54:12.784Z,67.82
2022-10-19T00:55:15.653Z,67.97
2022-10-19T00:56:20.293Z,67.98
2022-10-19T00:57:23.493Z,68.33
2022-10-19T00:58:30.135Z,68.21
2022-10-19T00:59:34.060Z,67.73
2022-10-19T01:00:37.613Z,68.09
2022-10-19T01:01:41.093Z,68.90
2022-10-19T01:02:43.929Z,69.12
2022-10-19T01:03:47.223Z,68.95
2022-10-19T01:04:52.532Z,69.00
2022-10-19T01:05:56.012Z,68.75
2022-10-19T01:07:00.572Z,68.60
2022-10-19T01:08:07.353Z,69.05
2022-10-19T01:09:10.212Z,68.94
2022-10-19T01:10:13.530Z,69.10
2022-10-19T01:11:50.175Z,68.45
2022-10-19T01:13:15.016Z,68.97
2022-10-19T01:14:52.172Z,69.45
2022-10-19T01:16:17.914Z,69.05
2022-10-19T01:17:38.139Z,68.38
2022-10-19T01:18:50.173Z,68.37
2022-10-19T01:20:05.536Z,68.23
2022-10-19T01:21:22.493Z,68.55
2022-10-19T01:23:02.662Z,68.72
2022-10-19T01:24:23.858Z,68.97
2022-10-19T01:25:44.815Z,69.40
2022-10-19T01:27:43.375Z,69.25
2022-10-19T01:29:04.127Z,68.72
2022-10-19T01:30:27.219Z,69.83
2022-10-19T01:31:38.635Z,68.98
2022-10-19T01:32:55.890Z,68.70
2022-10-19T01:34:15.856Z,69.09
2022-10-19T01:35:39.491Z,68.66
2022-10-19T01:37:00.651Z,68.66
2022-10-19T01:38:14.853Z,69.00
2022-10-19T01:39:36.112Z,69.52
2022-10-19T01:40:52.306Z,69.16
2022-10-19T01:42:12.192Z,69.00
2022-10-19T01:43:24.167Z,69.51
2022-10-19T01:44:36.216Z,69.49
2022-10-19T01:45:41.253Z,69.92
2022-10-19T01:46:57.761Z,69.28
2022-10-19T01:48:15.921Z,69.23
2022-10-19T01:49:43.374Z,69.81
2022-10-19T01:50:48.792Z,69.09
2022-10-19T01:52:00.888Z,69.52
2022-10-19T01:53:06.830Z,69.80
2022-10-19T01:54:14.582Z,69.87
2022-10-19T01:55:19.621Z,70.07
2022-10-19T01:56:27.827Z,70.24
2022-10-19T01:57:43.117Z,70.18
2022-10-19T01:58:47.124Z,69.63
2022-10-19T01:59:50.704Z,69.93
2022-10-19T02:00:56.885Z,70.28
2022-10-19T02:02:00.726Z,70.26
2022-10-19T02:03:06.286Z,70.25
2022-10-19T02:04:11.848Z,69.72
2022-10-19T02:05:17.469Z,69.97
2022-10-19T02:06:21.250Z,69.43
2022-10-19T02:07:25.719Z,69.98
2022-10-19T02:08:38.255Z,69.69
2022-10-19T02:09:41.062Z,69.70
2022-10-19T02:10:45.523Z,70.09
2022-10-19T02:11:56.141Z,70.18
2022-10-19T02:13:03.050Z,70.21
2022-10-19T02:14:13.217Z,70.70
2022-10-19T02:15:20.296Z,71.03
2022-10-19T02:16:38.316Z,71.02
2022-10-19T02:17:47.534Z,72.11
2022-10-19T02:18:53.496Z,71.89
2022-10-19T02:19:57.419Z,71.64
2022-10-19T02:21:04.890Z,71.49
2022-10-19T02:22:08.693Z,71.28
2022-10-19T02:23:13.453Z,72.14
2022-10-19T02:24:16.211Z,71.66
2022-10-19T02:25:19.573Z,71.91
2022-10-19T02:26:22.773Z,71.87
2022-10-19T02:27:26.004Z,71.76
2022-10-19T02:28:31.261Z,71.90
2022-10-19T02:29:36.250Z,71.69
2022-10-19T02:30:39.212Z,71.50
2022-10-19T02:31:42.538Z,71.63
2022-10-19T02:32:45.381Z,71.12
2022-10-19T02:33:48.345Z,71.87
2022-10-19T02:34:51.260Z,72.11
2022-10-19T02:35:54.314Z,72.35
2022-10-19T02:36:57.931Z,72.80
2022-10-19T02:38:02.571Z,72.42
2022-10-19T02:39:07.902Z,72.62
2022-10-19T02:40:11.817Z,72.40
2022-10-19T02:41:22.377Z,72.77
2022-10-19T02:42:35.901Z,73.49
2022-10-19T02:43:41.330Z,74.68
2022-10-19T02:44:58.372Z,75.14
2022-10-19T02:46:06.451Z,74.71
2022-10-19T02:47:22.661Z,74.86
2022-10-19T02:48:30.732Z,74.88
2022-10-19T02:49:36.373Z,74.44
2022-10-19T02:50:44.505Z,73.65
2022-10-19T02:52:06.535Z,73.37
2022-10-19T02:53:09.418Z,72.36
2022-10-19T02:54:12.415Z,72.44
2022-10-19T02:55:15.270Z,72.53
2022-10-19T02:56:18.255Z,72.38
2022-10-19T02:57:24.320Z,72.74
2022-10-19T02:58:27.226Z,74.06
2022-10-19T02:59:30.373Z,73.92
2022-10-19T03:00:33.824Z,74.44
2022-10-19T03:01:36.659Z,74.65
2022-10-19T03:02:39.494Z,75.44
2022-10-19T03:03:42.180Z,74.89
2022-10-19T03:04:48.828Z,74.50
2022-10-19T03:05:55.704Z,74.49
2022-10-19T03:06:58.662Z,74.05
2022-10-19T03:08:01.895Z,73.71
2022-10-19T03:09:04.895Z,74.14
2022-10-19T03:10:08.060Z,75.00
2022-10-19T03:11:11.305Z,74.08
2022-10-19T03:12:14.658Z,73.95
2022-10-19T03:13:17.475Z,73.63
2022-10-19T03:14:20.278Z,73.67
2022-10-19T03:15:25.052Z,73.60
2022-10-19T03:16:28.016Z,73.23
2022-10-19T03:17:31.182Z,74.05
2022-10-19T03:18:36.629Z,74.36
2022-10-19T03:19:39.706Z,74.75
2022-10-19T03:20:42.535Z,74.49
2022-10-19T03:21:45.651Z,75.09
2022-10-19T03:22:48.515Z,74.73
2022-10-19T03:23:51.806Z,74.03
2022-10-19T03:24:58.214Z,73.88
2022-10-19T03:26:01.273Z,73.17
2022-10-19T03:27:04.251Z,72.81
2022-10-19T03:28:07.117Z,72.70
2022-10-19T03:29:09.920Z,72.88
2022-10-19T03:30:12.927Z,72.45
2022-10-19T03:31:15.682Z,72.08
2022-10-19T03:32:18.565Z,71.52
2022-10-19T03:33:21.506Z,71.18
2022-10-19T03:34:24.390Z,71.54
2022-10-19T03:35:27.742Z,71.23
2022-10-19T03:36:36.052Z,70.95
2022-10-19T03:37:38.887Z,71.22
2022-10-19T03:38:42.879Z,70.85
2022-10-19T03:39:45.748Z,70.50
2022-10-19T03:40:48.576Z,70.98
2022-10-19T03:41:51.435Z,70.72
2022-10-19T03:42:54.135Z,71.80
2022-10-19T03:43:57.858Z,72.02
2022-10-19T03:45:00.703Z,71.58
2022-10-19T03:46:03.854Z,71.43
2022-10-19T03:47:06.620Z,71.70
2022-10-19T03:48:10.700Z,71.41
2022-10-19T03:49:14.026Z,71.34
2022-10-19T03:50:17.495Z,69.76
2022-10-19T03:51:25.379Z,70.09
2022-10-19T03:52:28.173Z,69.93
2022-10-19T03:53:33.164Z,69.77
2022-10-19T03:54:36.291Z,70.94
2022-10-19T03:56:42.636Z,70.55
2022-10-19T03:57:45.384Z,70.98
2022-10-19T03:58:50.173Z,70.95
2022-10-19T03:59:53.076Z,71.70
2022-10-19T04:00:55.889Z,71.14
2022-10-19T04:01:58.663Z,70.99
2022-10-19T04:03:01.580Z,71.69
2022-10-19T04:04:11.011Z,72.02
2022-10-19T04:05:14.006Z,72.22
2022-10-19T04:06:21.294Z,72.12
2022-10-19T04:07:25.103Z,72.28
2022-10-19T04:08:30.718Z,72.33
2022-10-19T04:09:33.859Z,72.62
2022-10-19T04:10:36.642Z,72.72
2022-10-19T04:11:40.146Z,73.00
2022-10-19T04:12:42.869Z,73.24
2022-10-19T04:13:53.302Z,74.22
2022-10-19T04:14:57.574Z,74.50
2022-10-19T04:16:01.280Z,75.22
2022-10-19T04:17:04.583Z,75.69
2022-10-19T04:18:07.517Z,76.51
2022-10-19T04:19:15.267Z,76.66
2022-10-19T04:20:21.371Z,76.65
2022-10-19T04:21:26.748Z,76.43
2022-10-19T04:22:29.526Z,76.36
2022-10-19T04:23:35.287Z,76.23
2022-10-19T04:24:37.998Z,76.33
2022-10-19T04:25:40.929Z,77.16
2022-10-19T04:26:49.725Z,77.12
2022-10-19T04:27:56.267Z,76.43
2022-10-19T04:29:01.504Z,76.26
2022-10-19T04:30:05.306Z,75.78
2022-10-19T04:31:08.613Z,75.55
2022-10-19T04:32:11.631Z,76.07
2022-10-19T04:33:14.525Z,76.67
2022-10-19T04:34:17.840Z,77.30
2022-10-19T04:35:20.632Z,77.31
2022-10-19T04:36:28.738Z,77.37
2022-10-19T04:37:31.853Z,77.65
2022-10-19T04:38:37.412Z,76.33
2022-10-19T04:39:41.447Z,74.94
2022-10-19T04:40:44.167Z,75.12
2022-10-19T04:41:47.012Z,75.44
2022-10-19T04:42:49.850Z,75.15
2022-10-19T04:43:58.472Z,75.02
2022-10-19T04:45:01.248Z,75.34
2022-10-19T04:46:15.429Z,75.91
2022-10-19T04:47:18.198Z,75.90
2022-10-19T04:48:23.054Z,75.10
2022-10-19T04:49:27.414Z,75.13
2022-10-19T04:50:30.168Z,74.98
2022-10-19T04:51:34.438Z,75.52
2022-10-19T04:52:37.178Z,76.03
2022-10-19T04:53:44.423Z,75.67
2022-10-19T04:54:47.407Z,75.01
2022-10-19T04:55:50.138Z,74.56
2022-10-19T04:56:54.102Z,74.92
2022-10-19T04:57:56.937Z,75.17
2022-10-19T04:59:01.320Z,75.29
2022-10-19T05:00:05.021Z,76.31
2022-10-19T05:01:17.253Z,76.29
2022-10-19T05:02:20.341Z,76.03
2022-10-19T05:03:23.056Z,76.12
2022-10-19T05:04:25.789Z,76.75
2022-10-19T05:05:28.514Z,76.70
2022-10-19T05:06:32.252Z,78.11
2022-10-19T05:07:35.392Z,78.43
2022-10-19T05:08:39.798Z,79.28
2022-10-19T05:09:42.645Z,79.52
2022-10-19T05:10:47.623Z,79.75
2022-10-19T05:11:51.464Z,79.74
2022-10-19T05:12:54.747Z,80.31
2022-10-19T05:13:57.696Z,80.75
2022-10-19T05:15:00.463Z,81.41
2022-10-19T05:16:06.739Z,82.14
2022-10-19T05:17:09.553Z,82.39
2022-10-19T05:18:14.760Z,81.99
2022-10-19T05:19:18.568Z,82.22
2022-10-19T05:20:21.643Z,82.12
2022-10-19T05:21:24.903Z,82.44
2022-10-19T05:22:27.913Z,82.33
2022-10-19T05:24:38.586Z,81.81
2022-10-19T05:25:41.403Z,81.58
2022-10-19T05:26:44.906Z,81.51
2022-10-19T05:27:52.469Z,81.83
2022-10-19T05:29:04.737Z,82.16
2022-10-19T05:30:08.861Z,82.30
2022-10-19T05:31:19.055Z,82.23
2022-10-19T05:32:21.906Z,81.50
2022-10-19T05:33:24.751Z,81.78
2022-10-19T05:34:27.510Z,81.91
2022-10-19T05:35:30.339Z,81.96
2022-10-19T05:36:39.560Z,81.97
2022-10-19T05:37:42.393Z,81.64
2022-10-19T05:38:48.277Z,81.81
2022-10-19T05:39:51.116Z,81.28
2022-10-19T05:40:53.944Z,81.61
2022-10-19T05:41:56.837Z,81.13
2022-10-19T05:42:59.743Z,81.29
2022-10-19T05:44:04.173Z,81.27
2022-10-19T05:45:07.537Z,81.49
2022-10-19T05:46:13.668Z,81.07
2022-10-19T05:47:16.881Z,81.32
2022-10-19T05:48:20.541Z,81.88
2022-10-19T05:49:23.638Z,81.87
2022-10-19T05:50:26.563Z,81.68
2022-10-19T05:51:29.694Z,82.02
2022-10-19T05:52:32.444Z,81.96
2022-10-19T05:53:35.903Z,81.92
2022-10-19T05:54:38.793Z,81.70
2022-10-19T05:55:41.557Z,81.69
2022-10-19T05:56:45.150Z,81.99
2022-10-19T05:57:47.959Z,82.45
2022-10-19T05:58:53.514Z,82.65
2022-10-19T05:59:58.610Z,82.57
2022-10-19T06:01:02.507Z,82.81
2022-10-19T06:02:05.440Z,82.77
2022-10-19T06:03:08.407Z,82.65
2022-10-19T06:04:14.194Z,82.45
2022-10-19T06:05:17.174Z,82.34
2022-10-19T06:06:20.429Z,82.28
2022-10-19T06:07:23.478Z,82.07
2022-10-19T06:08:27.221Z,81.96
2022-10-19T06:09:36.033Z,81.99
2022-10-19T06:10:38.941Z,82.50
2022-10-19T06:11:42.810Z,83.17
2022-10-19T06:12:45.607Z,83.06
2022-10-19T06:13:50.830Z,82.93
2022-10-19T06:14:53.535Z,82.84
2022-10-19T06:15:56.295Z,82.71
2022-10-19T06:16:59.289Z,82.85
2022-10-19T06:18:04.395Z,82.93
2022-10-19T06:19:08.389Z,83.13
2022-10-19T06:20:11.638Z,82.89
2022-10-19T06:21:20.212Z,82.92
2022-10-19T06:22:23.011Z,83.04
2022-10-19T06:23:25.860Z,82.82
2022-10-19T06:24:28.698Z,82.57
2022-10-19T06:25:32.509Z,82.56
2022-10-19T06:26:36.052Z,82.01
2022-10-19T06:27:39.313Z,82.05
2022-10-19T06:28:43.790Z,82.40
2022-10-19T06:29:46.753Z,82.70
2022-10-19T06:30:49.879Z,82.08
2022-10-19T06:31:54.464Z,82.11
2022-10-19T06:32:59.361Z,82.06
2022-10-19T06:34:02.405Z,81.93
2022-10-19T06:35:05.651Z,81.75
2022-10-19T06:36:18.950Z,82.02
2022-10-19T06:37:21.572Z,81.67
2022-10-19T06:38:25.423Z,81.52
2022-10-19T06:39:28.173Z,81.41
2022-10-19T06:40:34.556Z,81.21
2022-10-19T06:41:38.357Z,80.84
2022-10-19T06:42:41.178Z,80.79
2022-10-19T06:43:44.311Z,80.33
2022-10-19T06:44:47.090Z,80.31
2022-10-19T06:45:49.783Z,80.36
2022-10-19T06:46:52.986Z,79.58
2022-10-19T06:47:55.809Z,79.42
2022-10-19T06:49:01.611Z,78.84
2022-10-19T06:50:09.468Z,78.65
2022-10-19T06:51:13.850Z,78.36
2022-10-19T06:52:16.573Z,78.12
2022-10-19T06:53:19.466Z,77.79
2022-10-19T06:54:22.310Z,77.72
2022-10-19T06:55:25.849Z,77.06
2022-10-19T06:56:28.786Z,77.00
2022-10-19T06:57:35.877Z,76.84
2022-10-19T06:58:41.065Z,76.26
2022-10-19T06:59:43.852Z,75.86
2022-10-19T07:00:47.906Z,75.35
2022-10-19T07:01:50.763Z,75.16
2022-10-19T07:02:53.632Z,75.31
2022-10-19T07:03:56.633Z,74.78
2022-10-19T07:05:03.239Z,74.91
2022-10-19T07:06:12.891Z,74.68
2022-10-19T07:07:15.725Z,73.82
2022-10-19T07:08:26.914Z,73.33
2022-10-19T07:09:30.017Z,72.38
2022-10-19T07:10:32.837Z,71.91
2022-10-19T07:11:35.664Z,71.31
2022-10-19T07:12:38.577Z,71.29
2022-10-19T07:13:41.296Z,71.04
2022-10-19T07:14:44.073Z,69.88
2022-10-19T07:15:47.483Z,70.87
2022-10-19T07:16:50.974Z,71.47
2022-10-19T07:17:53.849Z,70.19
2022-10-19T07:18:56.652Z,69.79
2022-10-19T07:19:59.401Z,70.53
2022-10-19T07:21:04.372Z,70.01
2022-10-19T07:22:07.111Z,69.56
2022-10-19T07:23:10.015Z,68.17
2022-10-19T07:24:12.707Z,67.83
2022-10-19T07:25:15.567Z,67.50
2022-10-19T07:26:26.790Z,67.02
2022-10-19T07:27:31.870Z,66.64
2022-10-19T07:28:41.457Z,67.14
2022-10-19T07:29:44.367Z,66.54
2022-10-19T07:30:47.255Z,66.78
2022-10-19T07:31:50.319Z,66.45
2022-10-19T07:32:53.158Z,66.47
2022-10-19T07:33:58.111Z,65.25
2022-10-19T07:35:00.862Z,65.42
2022-10-19T07:36:07.362Z,64.77
2022-10-19T07:37:10.215Z,65.31
2022-10-19T07:38:13.302Z,64.90
2022-10-19T07:39:19.497Z,64.93
2022-10-19T07:40:22.792Z,65.14
2022-10-19T07:41:26.936Z,64.33
2022-10-19T07:42:33.067Z,63.38
2022-10-19T07:43:36.491Z,63.26
2022-10-19T07:44:39.471Z,63.28
2022-10-19T07:45:42.281Z,62.89
2022-10-19T07:46:45.655Z,63.40
2022-10-19T07:47:48.446Z,62.43
2022-10-19T07:48:52.346Z,63.06
2022-10-19T07:49:55.267Z,62.52
2022-10-19T07:50:58.351Z,62.31
2022-10-19T07:52:01.032Z,61.66
2022-10-19T07:53:05.515Z,60.68
2022-10-19T07:54:08.504Z,61.08
2022-10-19T07:55:11.425Z,60.34
2022-10-19T07:56:23.577Z,59.87
2022-10-19T07:57:27.309Z,59.67
2022-10-19T07:58:30.199Z,58.64
2022-10-19T07:59:34.666Z,58.47
2022-10-19T08:00:37.617Z,58.26
2022-10-19T08:01:41.897Z,57.47
2022-10-19T08:03:00.034Z,56.82
2022-10-19T08:05:33.426Z,56.27
2022-10-19T08:06:37.724Z,55.44
2022-10-19T08:07:40.536Z,55.41
2022-10-19T08:08:49.145Z,55.33
2022-10-19T08:09:53.818Z,54.72
2022-10-19T08:10:57.575Z,54.42
2022-10-19T08:12:00.584Z,54.79
2022-10-19T08:13:03.323Z,54.59
2022-10-19T08:14:06.208Z,55.08
2022-10-19T08:15:09.348Z,54.82
2022-10-19T08:16:33.086Z,53.96
2022-10-19T08:17:37.183Z,52.66
2022-10-19T08:18:45.905Z,53.26
2022-10-19T08:19:48.712Z,52.78
2022-10-19T08:20:51.425Z,52.26
2022-10-19T08:21:54.349Z,51.61
2022-10-19T08:23:07.407Z,51.08
2022-10-19T08:24:15.520Z,49.83
2022-10-19T08:25:18.408Z,49.53
2022-10-19T08:26:21.689Z,50.17
2022-10-19T08:27:24.548Z,49.81
2022-10-19T08:28:29.137Z,49.17
2022-10-19T08:29:32.127Z,49.46
2022-10-19T08:30:36.214Z,49.12
2022-10-19T08:31:39.340Z,48.51
2022-10-19T08:32:42.140Z,47.07
2022-10-19T08:33:45.346Z,47.50
2022-10-19T08:34:48.170Z,47.86
2022-10-19T08:35:51.121Z,46.84
2022-10-19T08:36:53.874Z,45.61
2022-10-19T08:37:58.656Z,47.22
2022-10-19T08:39:07.716Z,47.21
2022-10-19T08:40:26.019Z,46.54
2022-10-19T08:41:41.200Z,45.35
2022-10-19T08:42:54.675Z,45.29
2022-10-19T08:44:22.364Z,44.97
2022-10-19T08:45:44.880Z,45.21
2022-10-19T08:46:50.658Z,45.75
2022-10-19T08:48:06.011Z,45.41
2022-10-19T08:49:16.316Z,46.02
2022-10-19T08:50:24.297Z,45.53
2022-10-19T08:51:28.970Z,46.22
2022-10-19T08:52:35.881Z,45.09
2022-10-19T08:53:58.605Z,44.09
2022-10-19T08:55:14.015Z,43.58
2022-10-19T08:57:05.794Z,45.54
2022-10-19T08:58:46.320Z,45.36
2022-10-19T09:00:10.203Z,45.12
2022-10-19T09:01:28.420Z,44.42
2022-10-19T09:02:49.362Z,43.69
2022-10-19T09:04:02.480Z,43.45
2022-10-19T09:05:28.878Z,43.84
2022-10-19T09:06:57.393Z,43.75
2022-10-19T09:08:01.168Z,42.72
2022-10-19T09:09:06.461Z,42.43
2022-10-19T09:10:16.034Z,41.00
2022-10-19T09:11:26.118Z,41.22
2022-10-19T09:12:41.497Z,42.29
2022-10-19T09:14:04.359Z,43.66
2022-10-19T09:15:14.349Z,42.26
2022-10-19T09:16:19.965Z,42.29
2022-10-19T09:17:22.813Z,41.67
2022-10-19T09:18:30.299Z,40.84
2022-10-19T09:19:33.156Z,39.77
2022-10-19T09:20:40.664Z,38.98
2022-10-19T09:21:56.197Z,40.57
2022-10-19T09:23:21.015Z,41.12
2022-10-19T09:24:39.194Z,39.53
2022-10-19T09:25:42.072Z,40.45
2022-10-19T09:26:53.720Z,40.83
2022-10-19T09:28:36.669Z,39.69
2022-10-19T09:29:48.344Z,40.38
2022-10-19T09:30:56.920Z,40.97
2022-10-19T09:32:04.029Z,39.55
2022-10-19T09:33:16.380Z,40.07
2022-10-19T09:34:46.619Z,40.67
2022-10-19T09:35:50.632Z,38.72
2022-10-19T09:36:59.107Z,39.03
2022-10-19T09:38:02.513Z,39.71
2022-10-19T09:39:05.755Z,38.36
2022-10-19T09:40:17.362Z,38.22
2022-10-19T09:41:22.869Z,39.57
2022-10-19T09:42:30.636Z,40.66
2022-10-19T09:43:34.375Z,39.48
2022-10-19T09:44:37.098Z,40.64
2022-10-19T09:46:01.093Z,42.09
2022-10-19T09:47:31.235Z,42.47
2022-10-19T09:48:55.623Z,44.08
2022-10-19T09:50:24.647Z,44.08
2022-10-19T09:51:40.714Z,41.81
2022-10-19T09:52:46.145Z,41.31
2022-10-19T09:53:54.774Z,39.51
2022-10-19T09:55:04.593Z,39.00
2022-10-19T09:56:12.439Z,38.76
2022-10-19T09:57:22.168Z,38.94
2022-10-19T09:58:33.040Z,38.39
2022-10-19T09:59:36.979Z,37.47
2022-10-19T10:00:48.385Z,36.47
2022-10-19T10:02:07.665Z,36.11
2022-10-19T10:03:29.690Z,36.08
2022-10-19T10:04:32.616Z,35.88
2022-10-19T10:05:41.368Z,35.45
2022-10-19T10:06:46.933Z,35.10
2022-10-19T10:07:55.457Z,35.02
2022-10-19T10:08:59.284Z,34.02
2022-10-19T10:10:08.877Z,35.02
2022-10-19T10:11:14.836Z,35.97
2022-10-19T10:12:17.695Z,35.72
2022-10-19T10:13:25.081Z,34.80
2022-10-19T10:14:40.546Z,34.92
2022-10-19T10:15:48.482Z,34.99
2022-10-19T10:17:27.817Z,35.26
2022-10-19T10:18:38.523Z,33.53
2022-10-19T10:19:59.679Z,33.45
2022-10-19T10:21:12.441Z,35.41
2022-10-19T10:22:27.989Z,35.70
2022-10-19T10:23:36.589Z,35.68
2022-10-19T10:24:52.232Z,34.30
2022-10-19T10:25:57.497Z,33.92
2022-10-19T10:27:03.278Z,34.50
2022-10-19T10:28:23.740Z,34.92
2022-10-19T10:29:28.877Z,34.78
2022-10-19T10:30:36.808Z,33.26
2022-10-19T10:31:42.676Z,34.69
2022-10-19T10:32:51.857Z,34.60
2022-10-19T10:34:10.971Z,34.32
2022-10-19T10:35:37.495Z,33.37
2022-10-19T10:36:40.592Z,33.15
2022-10-19T10:37:46.368Z,34.85
2022-10-19T10:39:07.548Z,34.00
2022-10-19T10:40:30.262Z,33.21
2022-10-19T10:41:40.261Z,33.69
2022-10-19T10:42:46.016Z,34.50
2022-10-19T10:44:07.124Z,34.41
2022-10-19T10:45:20.800Z,32.81
2022-10-19T10:46:29.881Z,31.81
2022-10-19T10:47:33.178Z,31.53
2022-10-19T10:48:43.228Z,31.15
2022-10-19T10:49:57.314Z,30.73
2022-10-19T10:51:01.692Z,30.18
2022-10-19T10:52:16.401Z,30.68
2022-10-19T10:53:40.405Z,31.28
2022-10-19T10:54:59.525Z,31.22
2022-10-19T10:56:04.522Z,30.40
2022-10-19T10:57:18.764Z,29.51
2022-10-19T10:58:48.212Z,28.63
2022-10-19T10:59:53.602Z,28.97
2022-10-19T11:00:57.430Z,27.81
2022-10-19T11:02:10.691Z,27.56
2022-10-19T11:03:20.610Z,27.99
2022-10-19T11:04:30.241Z,28.20
2022-10-19T11:05:41.142Z,29.50
2022-10-19T11:06:55.274Z,31.25
2022-10-19T11:08:19.102Z,29.50
2022-10-19T11:09:39.602Z,29.97
2022-10-19T11:10:59.303Z,28.82
2022-10-19T11:12:05.846Z,29.59
2022-10-19T11:13:50.147Z,29.27
2022-10-19T11:15:20.057Z,30.56
2022-10-19T11:16:34.028Z,29.87
2022-10-19T11:17:40.335Z,31.76
2022-10-19T11:18:55.280Z,31.62
2022-10-19T11:19:58.925Z,31.35
2022-10-19T11:21:34.574Z,30.73
2022-10-19T11:23:00.410Z,31.47
2022-10-19T11:24:35.838Z,31.25
2022-10-19T11:25:44.616Z,31.00
2022-10-19T11:27:16.611Z,31.48
2022-10-19T11:28:44.124Z,32.01
2022-10-19T11:30:18.836Z,33.20
2022-10-19T11:31:37.421Z,33.02
2022-10-19T11:32:50.234Z,32.90
2022-10-19T11:34:11.073Z,32.08
2022-10-19T11:35:44.893Z,33.19
2022-10-19T11:37:06.008Z,32.73
2022-10-19T11:38:25.122Z,33.78
2022-10-19T11:39:36.917Z,33.76
2022-10-19T11:41:19.521Z,33.56
2022-10-19T11:44:29.992Z,33.60
2022-10-19T11:45:35.448Z,34.75
2022-10-19T11:46:56.429Z,34.20
2022-10-19T11:48:20.631Z,34.71
2022-10-19T11:49:45.435Z,33.37
2022-10-19T11:51:17.279Z,32.75
2022-10-19T11:52:46.603Z,33.69
2022-10-19T11:54:10.017Z,32.74
2022-10-19T11:55:38.325Z,31.74
2022-10-19T11:57:02.179Z,30.91
2022-10-19T11:58:35.265Z,31.21
2022-10-19T12:00:08.172Z,31.81
2022-10-19T12:01:59.531Z,32.59
2022-10-19T12:03:23.588Z,31.05
2022-10-19T12:04:51.149Z,31.99
2022-10-19T12:06:08.418Z,31.49
2022-10-19T12:07:23.076Z,30.07
2022-10-19T12:08:37.679Z,31.60
2022-10-19T12:09:53.474Z,31.15
2022-10-19T12:11:23.688Z,30.63
2022-10-19T12:12:32.502Z,31.46
2022-10-19T12:13:49.430Z,32.24
2022-10-19T12:15:01.597Z,31.73
2022-10-19T12:16:06.010Z,31.86
2022-10-19T12:17:20.398Z,32.08
2022-10-19T12:18:49.229Z,31.73
2022-10-19T12:19:56.776Z,32.25
2022-10-19T12:21:03.494Z,33.75
2022-10-19T12:22:13.976Z,32.68
2022-10-19T12:23:26.424Z,33.23
2022-10-19T12:24:30.962Z,33.36
2022-10-19T12:25:36.260Z,33.27
2022-10-19T12:26:41.636Z,33.86
2022-10-19T12:27:50.310Z,34.19
2022-10-19T12:29:01.128Z,33.74
2022-10-19T12:30:30.346Z,32.94
2022-10-19T12:31:35.787Z,33.88
2022-10-19T12:32:54.252Z,33.77
2022-10-19T12:34:09.594Z,33.39
2022-10-19T12:35:31.452Z,33.12
2022-10-19T12:36:47.105Z,32.37
2022-10-19T12:38:04.137Z,32.18
2022-10-19T12:39:21.090Z,31.44
2022-10-19T12:40:45.198Z,31.66
2022-10-19T12:41:52.798Z,31.53
2022-10-19T12:43:24.458Z,32.43
2022-10-19T12:44:36.458Z,32.94
2022-10-19T12:45:52.508Z,33.03
2022-10-19T12:47:10.569Z,32.68
2022-10-19T12:48:14.559Z,31.26
2022-10-19T12:49:26.906Z,30.84
2022-10-19T12:50:54.286Z,31.38
2022-10-19T12:52:01.963Z,30.35
2022-10-19T12:53:05.579Z,31.00
2022-10-19T12:54:09.911Z,30.90
2022-10-19T12:55:15.634Z,31.75
2022-10-19T12:56:20.512Z,31.45
2022-10-19T12:57:30.511Z,31.29
2022-10-19T12:58:47.463Z,30.89
2022-10-19T13:00:24.814Z,31.50
2022-10-19T13:01:33.477Z,31.79
2022-10-19T13:02:39.411Z,31.02
2022-10-19T13:03:45.306Z,32.37
2022-10-19T13:04:54.377Z,31.64
2022-10-19T13:06:16.434Z,31.56
2022-10-19T13:07:19.623Z,31.47
2022-10-19T13:08:32.846Z,31.26
2022-10-19T13:09:39.742Z,31.64
2022-10-19T13:11:06.448Z,32.13
2022-10-19T13:12:16.182Z,32.50
2022-10-19T13:13:52.481Z,31.12
2022-10-19T13:14:58.721Z,32.21
2022-10-19T13:16:02.777Z,32.36
2022-10-19T13:17:05.626Z,32.41
2022-10-19T13:18:44.654Z,31.68
2022-10-19T13:19:47.539Z,31.82
2022-10-19T13:20:53.413Z,32.58
2022-10-19T13:22:02.456Z,32.40
2022-10-19T13:23:05.170Z,32.51
2022-10-19T13:24:26.130Z,33.10
2022-10-19T13:25:39.499Z,32.54
2022-10-19T13:26:42.358Z,33.12
2022-10-19T13:27:46.965Z,33.70
2022-10-19T13:28:55.818Z,33.61
2022-10-19T13:29:58.725Z,33.23
2022-10-19T13:31:07.137Z,33.48
2022-10-19T13:32:45.517Z,34.04
2022-10-19T13:33:50.302Z,34.88
2022-10-19T13:34:53.574Z,35.42
2022-10-19T13:35:59.137Z,36.75
2022-10-19T13:37:04.009Z,36.84
2022-10-19T13:38:10.827Z,36.35
2022-10-19T13:39:15.960Z,35.75
2022-10-19T13:40:24.515Z,36.33
2022-10-19T13:41:37.001Z,36.61
2022-10-19T13:42:40.357Z,36.11
2022-10-19T13:44:02.150Z,36.19
2022-10-19T13:45:05.448Z,35.32
2022-10-19T13:46:08.112Z,36.29
2022-10-19T13:49:19.676Z,37.71
2022-10-19T13:50:47.114Z,37.60
2022-10-19T13:52:07.673Z,37.37
2022-10-19T13:53:39.065Z,37.42
2022-10-19T13:55:12.967Z,37.35
2022-10-19T13:56:49.659Z,38.01
2022-10-19T13:58:02.875Z,38.33
2022-10-19T14:00:04.539Z,38.85
2022-10-19T14:01:07.565Z,39.54
2022-10-19T14:02:55.335Z,39.52
2022-10-19T14:04:12.750Z,40.00
2022-10-19T14:05:42.849Z,39.93
2022-10-19T14:07:02.036Z,39.42
2022-10-19T14:08:19.995Z,40.08
2022-10-19T14:09:48.329Z,40.25
2022-10-19T14:11:14.178Z,40.51
2022-10-19T14:12:16.871Z,39.86
2022-10-19T14:13:22.543Z,39.37
2022-10-19T14:14:25.605Z,40.21
2022-10-19T14:15:31.348Z,40.23
2022-10-19T14:16:34.684Z,40.24
2022-10-19T14:17:42.709Z,40.13
2022-10-19T14:18:55.943Z,40.94
2022-10-19T14:20:00.267Z,40.84
2022-10-19T14:21:06.933Z,40.81
2022-10-19T14:22:26.827Z,40.80
2022-10-19T14:23:33.575Z,40.51
2022-10-19T14:24:37.123Z,41.03
2022-10-19T14:25:39.896Z,40.49
2022-10-19T14:26:42.768Z,40.89
2022-10-19T14:27:54.483Z,41.39
2022-10-19T14:28:59.974Z,41.77
2022-10-19T14:30:04.165Z,42.04
2022-10-19T14:31:17.448Z,41.34
2022-10-19T14:32:28.983Z,41.98
2022-10-19T14:33:39.435Z,41.34
2022-10-19T14:34:44.647Z,41.50
2022-10-19T14:35:50.947Z,41.65
2022-10-19T14:36:53.926Z,41.33
2022-10-19T14:37:57.505Z,41.91
2022-10-19T14:39:01.006Z,40.63
2022-10-19T14:40:26.527Z,40.71
2022-10-19T14:44:00.169Z,42.84
2022-10-19T14:45:03.754Z,41.76
2022-10-19T14:46:06.599Z,42.81
2022-10-19T14:47:21.347Z,42.43
2022-10-19T14:48:24.602Z,41.95
2022-10-19T14:49:27.474Z,42.12
2022-10-19T14:50:32.944Z,42.06
2022-10-19T14:51:38.839Z,43.14
2022-10-19T14:52:41.964Z,42.87
2022-10-19T14:53:56.667Z,42.76
2022-10-19T14:55:05.319Z,43.37
2022-10-19T14:56:11.857Z,43.11
2022-10-19T14:57:24.987Z,43.26
2022-10-19T14:58:44.274Z,43.16